createdAt,value
2023-02-18T00:00:37.403Z,102254.50
2023-02-18T00:03:04.756Z,102253.72
2023-02-18T00:05:33.220Z,102249.91
2023-02-18T00:08:00.634Z,102247.47
2023-02-18T00:10:27.922Z,102246.66
2023-02-18T00:12:55.273Z,102249.81
2023-02-18T00:15:22.562Z,102248.94
2023-02-18T00:17:49.888Z,102249.97
2023-02-18T00:20:17.305Z,102242.78
2023-02-18T00:22:44.645Z,102236.34
2023-02-18T00:25:13.968Z,102248.53
2023-02-18T00:27:41.326Z,102244.44
2023-02-18T00:30:09.203Z,102238.13
2023-02-18T00:32:36.621Z,102243.31
2023-02-18T00:35:04.495Z,102242.19
2023-02-18T00:37:33.877Z,102239.16
2023-02-18T00:40:03.006Z,102245.13
2023-02-18T00:42:31.037Z,102249.13
2023-02-18T00:44:58.313Z,102253.66
2023-02-18T00:47:25.854Z,102252.53
2023-02-18T00:49:53.193Z,102250.69
2023-02-18T00:52:20.561Z,102246.09
2023-02-18T00:54:47.985Z,102242.84
2023-02-18T00:57:18.299Z,102249.34
2023-02-18T00:59:45.740Z,102242.25
2023-02-18T01:02:13.212Z,102247.16
2023-02-18T01:04:40.685Z,102245.13
2023-02-18T01:07:10.391Z,102248.63
2023-02-18T01:09:37.789Z,102239.44
2023-02-18T01:12:05.505Z,102236.44
2023-02-18T01:14:33.230Z,102241.91
2023-02-18T01:17:00.579Z,102240.16
2023-02-18T01:19:27.861Z,102239.88
2023-02-18T01:21:55.284Z,102234.97
2023-02-18T01:24:22.602Z,102241.34
2023-02-18T01:26:50.053Z,102237.13
2023-02-18T01:29:17.376Z,102224.56
2023-02-18T01:31:44.852Z,102225.31
2023-02-18T01:34:15.194Z,102230.25
2023-02-18T01:36:42.521Z,102229.66
2023-02-18T01:39:09.815Z,102231.47
2023-02-18T01:41:37.167Z,102225.00
2023-02-18T01:44:17.565Z,102226.06
2023-02-18T01:46:46.935Z,102217.09
2023-02-18T01:49:23.508Z,102226.22
2023-02-18T01:51:57.778Z,102223.31
2023-02-18T01:54:32.164Z,102222.03
2023-02-18T01:57:06.096Z,102215.41
2023-02-18T01:59:38.792Z,102216.41
2023-02-18T02:02:10.946Z,102218.91
2023-02-18T02:04:40.692Z,102214.66
2023-02-18T02:07:10.264Z,102212.19
2023-02-18T02:09:39.731Z,102220.66
2023-02-18T02:12:35.052Z,102210.69
2023-02-18T02:15:08.440Z,102211.28
2023-02-18T02:18:13.034Z,102215.63
2023-02-18T02:21:20.657Z,102225.47
2023-02-18T02:24:06.260Z,102225.75
2023-02-18T02:27:07.066Z,102222.50
2023-02-18T02:30:01.677Z,102218.31
2023-02-18T02:32:34.715Z,102217.91
2023-02-18T02:35:13.954Z,102221.00
2023-02-18T02:37:52.905Z,102214.72
2023-02-18T02:40:43.921Z,102206.00
2023-02-18T02:43:20.436Z,102203.59
2023-02-18T02:46:12.212Z,102196.50
2023-02-18T02:48:46.724Z,102202.66
2023-02-18T02:51:36.179Z,102199.53
2023-02-18T02:54:24.936Z,102197.69
2023-02-18T02:57:29.008Z,102192.59
2023-02-18T03:00:10.382Z,102178.53
2023-02-18T03:02:56.691Z,102182.00
2023-02-18T03:05:36.192Z,102180.19
2023-02-18T03:08:46.156Z,102189.50
2023-02-18T03:11:16.023Z,102189.09
2023-02-18T03:14:02.160Z,102177.41
2023-02-18T03:16:51.028Z,102176.50
2023-02-18T03:19:32.793Z,102190.88
2023-02-18T03:22:27.096Z,102180.34
2023-02-18T03:24:57.922Z,102170.97
2023-02-18T03:27:29.288Z,102173.69
2023-02-18T03:30:07.584Z,102184.88
2023-02-18T03:32:36.810Z,102188.38
2023-02-18T03:35:17.020Z,102182.38
2023-02-18T03:38:01.102Z,102186.78
2023-02-18T03:40:33.475Z,102185.00
2023-02-18T03:43:02.088Z,102179.59
2023-02-18T03:45:29.516Z,102183.19
2023-02-18T03:47:57.304Z,102177.34
2023-02-18T03:50:25.080Z,102181.28
2023-02-18T03:52:52.514Z,102189.06
2023-02-18T03:55:21.164Z,102190.63
2023-02-18T03:57:48.521Z,102181.59
2023-02-18T04:00:16.035Z,102185.22
2023-02-18T04:02:43.361Z,102187.34
2023-02-18T04:05:11.138Z,102190.47
2023-02-18T04:07:38.776Z,102182.31
2023-02-18T04:10:07.121Z,102173.28
2023-02-18T04:12:34.507Z,102180.13
2023-02-18T04:15:01.983Z,102180.88
2023-02-18T04:17:29.344Z,102186.25
2023-02-18T04:19:56.649Z,102192.63
2023-02-18T04:22:23.933Z,102189.47
2023-02-18T04:24:51.313Z,102188.78
2023-02-18T04:27:18.668Z,102190.44
2023-02-18T04:29:46.142Z,102196.00
2023-02-18T04:32:13.508Z,102199.59
2023-02-18T04:34:40.902Z,102203.69
2023-02-18T04:37:08.259Z,102198.63
2023-02-18T04:39:35.661Z,102204.84
2023-02-18T04:42:08.734Z,102200.38
2023-02-18T04:44:37.604Z,102196.75
2023-02-18T04:47:08.263Z,102207.03
2023-02-18T04:49:35.831Z,102207.97
2023-02-18T04:52:03.628Z,102201.38
2023-02-18T04:54:30.974Z,102199.91
2023-02-18T04:56:58.345Z,102208.16
2023-02-18T04:59:28.055Z,102209.88
2023-02-18T05:01:55.614Z,102204.59
2023-02-18T05:04:23.178Z,102210.09
2023-02-18T05:06:50.572Z,102217.72
2023-02-18T05:09:17.954Z,102213.63
2023-02-18T05:11:45.892Z,102212.22
2023-02-18T05:14:15.350Z,102218.53
2023-02-18T05:16:42.617Z,102223.78
2023-02-18T05:19:14.119Z,102217.34
2023-02-18T05:21:41.605Z,102222.75
2023-02-18T05:24:09.923Z,102206.03
2023-02-18T05:26:37.392Z,102209.41
2023-02-18T05:29:05.203Z,102207.84
2023-02-18T05:31:33.405Z,102214.34
2023-02-18T05:34:00.882Z,102199.47
2023-02-18T05:36:28.204Z,102208.66
2023-02-18T05:38:55.597Z,102210.53
2023-02-18T05:41:22.890Z,102215.56
2023-02-18T05:44:09.115Z,102221.06
2023-02-18T05:46:36.467Z,102227.41
2023-02-18T05:49:03.844Z,102223.28
2023-02-18T05:51:31.181Z,102218.16
2023-02-18T05:53:58.677Z,102220.84
2023-02-18T05:56:26.082Z,102216.75
2023-02-18T05:58:53.436Z,102228.25
2023-02-18T06:01:20.807Z,102234.84
2023-02-18T06:03:48.196Z,102236.50
2023-02-18T06:06:15.613Z,102235.19
2023-02-18T06:08:45.122Z,102237.66
2023-02-18T06:11:12.424Z,102242.00
2023-02-18T06:13:39.822Z,102240.56
2023-02-18T06:16:07.507Z,102235.66
2023-02-18T06:18:35.154Z,102245.97
2023-02-18T06:21:02.422Z,102243.03
2023-02-18T06:23:29.817Z,102250.53
2023-02-18T06:25:57.387Z,102244.81
2023-02-18T06:28:24.774Z,102257.66
2023-02-18T06:30:52.158Z,102259.06
2023-02-18T06:33:19.495Z,102248.53
2023-02-18T06:35:55.488Z,102254.22
2023-02-18T06:38:22.899Z,102254.13
2023-02-18T06:40:50.560Z,102252.50
2023-02-18T06:43:18.899Z,102250.22
2023-02-18T06:45:46.493Z,102253.84
2023-02-18T06:48:14.816Z,102251.34
2023-02-18T06:50:43.146Z,102249.34
2023-02-18T06:53:11.285Z,102255.72
2023-02-18T06:55:39.126Z,102258.88
2023-02-18T06:58:06.367Z,102257.56
2023-02-18T07:00:33.804Z,102250.63
2023-02-18T07:03:01.155Z,102255.19
2023-02-18T07:05:28.811Z,102256.56
2023-02-18T07:07:56.180Z,102249.84
2023-02-18T07:10:23.747Z,102267.66
2023-02-18T07:12:51.109Z,102254.59
2023-02-18T07:15:21.510Z,102254.59
2023-02-18T07:17:48.802Z,102256.31
2023-02-18T07:20:16.242Z,102256.88
2023-02-18T07:22:43.499Z,102250.06
2023-02-18T07:25:10.850Z,102254.38
2023-02-18T07:27:38.202Z,102255.25
2023-02-18T07:30:06.415Z,102268.03
2023-02-18T07:32:34.129Z,102281.16
2023-02-18T07:35:01.491Z,102274.81
2023-02-18T07:37:28.874Z,102274.47
2023-02-18T07:39:56.963Z,102275.53
2023-02-18T07:42:24.427Z,102268.09
2023-02-18T07:44:51.759Z,102277.72
2023-02-18T07:47:19.785Z,102276.69
2023-02-18T07:49:47.707Z,102278.47
2023-02-18T07:52:16.141Z,102277.03
2023-02-18T07:54:43.592Z,102274.91
2023-02-18T07:57:10.898Z,102274.63
2023-02-18T07:59:38.471Z,102283.75
2023-02-18T08:02:07.674Z,102278.72
2023-02-18T08:04:35.065Z,102281.13
2023-02-18T08:07:02.461Z,102280.66
2023-02-18T08:09:29.825Z,102279.75
2023-02-18T08:11:57.919Z,102281.56
2023-02-18T08:14:25.357Z,102281.31
2023-02-18T08:16:53.382Z,102278.69
2023-02-18T08:19:20.804Z,102279.59
2023-02-18T08:21:48.163Z,102280.81
2023-02-18T08:24:15.549Z,102277.78
2023-02-18T08:26:59.164Z,102276.16
2023-02-18T08:29:27.540Z,102280.81
2023-02-18T08:31:57.237Z,102283.84
2023-02-18T08:34:24.712Z,102278.63
2023-02-18T08:36:52.085Z,102277.31
2023-02-18T08:39:19.471Z,102281.06
2023-02-18T08:41:46.802Z,102284.16
2023-02-18T08:44:14.327Z,102271.56
2023-02-18T08:46:41.834Z,102276.75
2023-02-18T08:49:09.748Z,102273.25
2023-02-18T08:51:37.123Z,102268.16
2023-02-18T08:54:07.398Z,102268.09
2023-02-18T08:56:34.741Z,102265.16
2023-02-18T08:59:02.091Z,102269.94
2023-02-18T09:01:29.469Z,102272.47
2023-02-18T09:03:56.946Z,102274.28
2023-02-18T09:06:24.384Z,102267.56
2023-02-18T09:08:51.888Z,102270.78
2023-02-18T09:11:20.254Z,102266.91
2023-02-18T09:13:47.901Z,102276.06
2023-02-18T09:16:24.446Z,102273.84
2023-02-18T09:18:53.319Z,102266.78
2023-02-18T09:21:20.873Z,102254.66
2023-02-18T09:23:48.228Z,102264.78
2023-02-18T09:26:18.020Z,102266.72
2023-02-18T09:28:45.408Z,102261.50
2023-02-18T09:31:20.851Z,102260.44
2023-02-18T09:33:51.273Z,102255.91
2023-02-18T09:36:20.479Z,102254.78
2023-02-18T09:38:48.243Z,102262.41
2023-02-18T09:41:28.104Z,102261.50
2023-02-18T09:44:18.446Z,102258.34
2023-02-18T09:47:01.260Z,102254.00
2023-02-18T09:49:33.702Z,102259.81
2023-02-18T09:52:11.462Z,102255.72
2023-02-18T09:54:38.960Z,102250.63
2023-02-18T09:57:15.802Z,102244.53
2023-02-18T09:59:45.070Z,102248.69
2023-02-18T10:02:17.491Z,102243.44
2023-02-18T10:04:52.187Z,102246.47
2023-02-18T10:07:32.240Z,102247.13
2023-02-18T10:10:16.681Z,102249.78
2023-02-18T10:12:44.613Z,102245.59
2023-02-18T10:15:27.228Z,102250.28
2023-02-18T10:17:56.916Z,102244.66
2023-02-18T10:20:29.070Z,102245.78
2023-02-18T10:23:01.321Z,102237.91
2023-02-18T10:25:29.686Z,102248.09
2023-02-18T10:27:59.846Z,102245.09
2023-02-18T10:30:48.932Z,102240.03
2023-02-18T10:33:45.122Z,102241.78
2023-02-18T10:36:47.956Z,102230.97
2023-02-18T10:39:32.789Z,102231.91
2023-02-18T10:42:15.054Z,102234.06
2023-02-18T10:45:10.500Z,102230.31
2023-02-18T10:47:46.624Z,102227.75
2023-02-18T10:50:49.744Z,102226.56
2023-02-18T10:53:34.586Z,102225.31
2023-02-18T10:56:02.467Z,102216.41
2023-02-18T10:58:29.783Z,102222.66
2023-02-18T11:00:57.815Z,102218.53
2023-02-18T11:03:38.488Z,102213.44
2023-02-18T11:06:25.080Z,102201.59
2023-02-18T11:08:54.889Z,102196.72
2023-02-18T11:11:40.456Z,102188.41
2023-02-18T11:14:13.555Z,102183.81
2023-02-18T11:16:46.488Z,102187.09
2023-02-18T11:19:37.047Z,102183.00
2023-02-18T11:22:33.144Z,102174.06
2023-02-18T11:25:03.134Z,102180.00
2023-02-18T11:27:44.044Z,102169.44
2023-02-18T11:30:17.612Z,102173.00
2023-02-18T11:32:47.992Z,102170.91
2023-02-18T11:35:21.470Z,102166.41
2023-02-18T11:37:49.631Z,102158.03
2023-02-18T11:40:28.505Z,102145.81
2023-02-18T11:43:10.339Z,102141.78
2023-02-18T11:45:37.765Z,102139.34
2023-02-18T11:48:16.254Z,102137.22
2023-02-18T11:50:44.624Z,102130.66
2023-02-18T11:53:30.860Z,102128.53
2023-02-18T11:56:01.688Z,102126.06
2023-02-18T11:58:38.341Z,102117.66
2023-02-18T12:01:12.289Z,102112.22
2023-02-18T12:03:50.865Z,102119.84
2023-02-18T12:06:28.119Z,102117.13
2023-02-18T12:09:04.092Z,102107.38
2023-02-18T12:11:42.766Z,102103.25
2023-02-18T12:14:17.679Z,102101.53
2023-02-18T12:17:22.470Z,102104.72
2023-02-18T12:20:14.304Z,102090.34
2023-02-18T12:22:45.005Z,102086.81
2023-02-18T12:25:24.378Z,102083.56
2023-02-18T12:28:23.840Z,102074.84
2023-02-18T12:31:09.586Z,102065.38
2023-02-18T12:33:57.645Z,102063.22
2023-02-18T12:36:48.253Z,102062.53
2023-02-18T12:39:32.088Z,102054.00
2023-02-18T12:42:49.096Z,102057.78
2023-02-18T12:45:54.012Z,102058.72
2023-02-18T12:48:35.397Z,102053.75
2023-02-18T12:51:08.734Z,102043.91
2023-02-18T12:53:50.206Z,102041.88
2023-02-18T12:56:33.947Z,102030.72
2023-02-18T12:59:31.789Z,102023.19
2023-02-18T13:02:21.851Z,102014.88
2023-02-18T13:05:26.479Z,102014.47
2023-02-18T13:08:07.205Z,102021.53
2023-02-18T13:10:49.403Z,102009.31
2023-02-18T13:13:18.379Z,102004.53
2023-02-18T13:15:55.345Z,102002.06
2023-02-18T13:18:36.530Z,101999.03
2023-02-18T13:21:07.583Z,101993.72
2023-02-18T13:23:48.144Z,101992.09
2023-02-18T13:26:17.906Z,101980.63
2023-02-18T13:29:25.995Z,101990.94
2023-02-18T13:32:12.027Z,101978.19
2023-02-18T13:35:09.493Z,101977.59
2023-02-18T13:38:14.400Z,101972.06
2023-02-18T13:40:42.591Z,101967.66
2023-02-18T13:43:23.713Z,101973.81
2023-02-18T13:46:19.398Z,101961.81
2023-02-18T13:48:52.909Z,101961.59
2023-02-18T13:51:44.197Z,101957.28
2023-02-18T13:54:18.423Z,101958.59
2023-02-18T13:57:05.640Z,101956.00
2023-02-18T13:59:32.946Z,101954.47
2023-02-18T14:02:25.301Z,101939.50
2023-02-18T14:04:54.561Z,101939.53
2023-02-18T14:07:35.882Z,101941.50
2023-02-18T14:10:06.435Z,101939.28
2023-02-18T14:12:35.657Z,101944.50
2023-02-18T14:15:27.486Z,101939.06
2023-02-18T14:18:12.852Z,101927.66
2023-02-18T14:20:40.227Z,101928.03
2023-02-18T14:23:22.817Z,101926.91
2023-02-18T14:26:04.963Z,101918.41
2023-02-18T14:28:35.076Z,101925.56
2023-02-18T14:31:43.061Z,101919.56
2023-02-18T14:34:47.276Z,101913.13
2023-02-18T14:37:33.627Z,101908.50
2023-02-18T14:40:06.961Z,101899.66
2023-02-18T14:43:06.474Z,101901.19
2023-02-18T14:45:57.993Z,101895.28
2023-02-18T14:48:25.312Z,101882.59
2023-02-18T14:50:53.773Z,101887.97
2023-02-18T14:53:24.954Z,101879.09
2023-02-18T14:55:58.418Z,101882.69
2023-02-18T14:58:31.607Z,101890.78
2023-02-18T15:01:15.106Z,101881.16
2023-02-18T15:03:42.409Z,101877.91
2023-02-18T15:06:31.581Z,101884.91
2023-02-18T15:09:00.765Z,101883.13
2023-02-18T15:11:37.664Z,101877.81
2023-02-18T15:14:30.553Z,101879.25
2023-02-18T15:16:59.048Z,101887.09
2023-02-18T15:19:29.476Z,101884.22
2023-02-18T15:21:59.662Z,101884.44
2023-02-18T15:24:34.280Z,101882.84
2023-02-18T15:27:05.605Z,101884.53
2023-02-18T15:29:39.264Z,101881.66
2023-02-18T15:32:22.239Z,101880.38
2023-02-18T15:34:52.070Z,101873.38
2023-02-18T15:37:22.604Z,101871.56
2023-02-18T15:39:50.668Z,101871.06
2023-02-18T15:42:31.181Z,101869.06
2023-02-18T15:45:25.814Z,101871.28
2023-02-18T15:47:56.039Z,101874.09
2023-02-18T15:50:27.901Z,101873.72
2023-02-18T15:52:59.770Z,101866.41
2023-02-18T15:55:36.962Z,101873.28
2023-02-18T15:58:09.553Z,101870.69
2023-02-18T16:00:47.239Z,101880.09
2023-02-18T16:03:24.718Z,101872.06
2023-02-18T16:06:12.845Z,101879.94
2023-02-18T16:08:41.145Z,101871.78
2023-02-18T16:11:13.604Z,101878.91
2023-02-18T16:13:48.131Z,101876.53
2023-02-18T16:16:32.218Z,101874.13
2023-02-18T16:19:02.502Z,101864.13
2023-02-18T16:21:33.067Z,101865.75
2023-02-18T16:24:04.366Z,101863.50
2023-02-18T16:26:37.380Z,101866.50
2023-02-18T16:29:21.188Z,101866.03
2023-02-18T16:31:48.729Z,101866.03
2023-02-18T16:34:18.334Z,101867.94
2023-02-18T16:37:12.609Z,101857.81
2023-02-18T16:39:59.407Z,101853.75
2023-02-18T16:42:26.863Z,101856.00
2023-02-18T16:44:54.238Z,101853.06
2023-02-18T16:47:21.672Z,101853.41
2023-02-18T16:49:51.078Z,101848.00
2023-02-18T16:52:19.464Z,101846.41
2023-02-18T16:54:48.245Z,101851.09
2023-02-18T16:57:15.602Z,101861.69
2023-02-18T16:59:42.934Z,101861.75
2023-02-18T17:02:18.579Z,101856.63
2023-02-18T17:04:46.048Z,101854.78
2023-02-18T17:07:13.473Z,101858.38
2023-02-18T17:09:43.669Z,101861.69
2023-02-18T17:12:12.345Z,101858.22
2023-02-18T17:14:40.285Z,101861.22
2023-02-18T17:17:13.949Z,101854.78
2023-02-18T17:19:41.381Z,101860.22
2023-02-18T17:22:13.149Z,101862.97
2023-02-18T17:24:40.548Z,101856.50
2023-02-18T17:27:09.937Z,101856.53
2023-02-18T17:29:37.386Z,101864.09
2023-02-18T17:32:07.691Z,101853.84
2023-02-18T17:34:41.252Z,101859.81
2023-02-18T17:37:15.146Z,101861.72
2023-02-18T17:39:42.449Z,101865.75
2023-02-18T17:42:11.770Z,101868.69
2023-02-18T17:44:40.516Z,101868.78
2023-02-18T17:47:07.812Z,101869.88
2023-02-18T17:49:35.172Z,101872.06
2023-02-18T17:52:02.492Z,101868.28
2023-02-18T17:54:29.923Z,101870.75
2023-02-18T17:56:57.285Z,101866.97
2023-02-18T17:59:24.667Z,101875.69
2023-02-18T18:01:51.978Z,101872.94
2023-02-18T18:04:19.503Z,101864.50
2023-02-18T18:06:47.732Z,101884.31
2023-02-18T18:09:15.113Z,101877.84
2023-02-18T18:11:42.609Z,101878.41
2023-02-18T18:14:14.712Z,101878.91
2023-02-18T18:16:41.926Z,101878.94
2023-02-18T18:19:09.220Z,101878.41
2023-02-18T18:21:36.986Z,101870.00
2023-02-18T18:24:04.564Z,101871.34
2023-02-18T18:26:31.927Z,101878.41
2023-02-18T18:28:59.271Z,101879.50
2023-02-18T18:31:26.637Z,101876.81
2023-02-18T18:33:54.078Z,101883.63
2023-02-18T18:36:24.088Z,101877.13
2023-02-18T18:38:51.882Z,101870.66
2023-02-18T18:41:21.764Z,101866.56
2023-02-18T18:43:49.883Z,101870.56
2023-02-18T18:46:18.153Z,101871.97
2023-02-18T18:48:45.961Z,101866.22
2023-02-18T18:51:21.427Z,101874.66
2023-02-18T18:53:48.868Z,101876.00
2023-02-18T18:56:16.115Z,101879.56
2023-02-18T18:58:43.540Z,101870.41
2023-02-18T19:01:17.175Z,101870.19
2023-02-18T19:03:46.180Z,101871.50
2023-02-18T19:06:14.842Z,101866.34
2023-02-18T19:08:42.535Z,101881.81
2023-02-18T19:11:12.030Z,101868.81
2023-02-18T19:13:40.367Z,101875.03
2023-02-18T19:16:07.910Z,101874.81
2023-02-18T19:18:35.401Z,101870.19
2023-02-18T19:21:04.692Z,101872.91
2023-02-18T19:23:32.979Z,101865.84
2023-02-18T19:26:01.271Z,101866.13
2023-02-18T19:28:28.652Z,101855.56
2023-02-18T19:30:56.046Z,101866.13
2023-02-18T19:33:23.627Z,101866.13
2023-02-18T19:35:50.922Z,101863.41
2023-02-18T19:38:19.016Z,101868.03
2023-02-18T19:40:47.000Z,101871.81
2023-02-18T19:43:15.075Z,101878.59
2023-02-18T19:45:44.806Z,101870.22
2023-02-18T19:48:13.244Z,101875.88
2023-02-18T19:50:42.012Z,101875.88
2023-02-18T19:53:10.273Z,101883.75
2023-02-18T19:55:37.587Z,101882.09
2023-02-18T19:58:05.126Z,101879.94
2023-02-18T20:00:32.460Z,101880.75
2023-02-18T20:02:59.872Z,101878.06
2023-02-18T20:05:27.248Z,101882.38
2023-02-18T20:07:54.595Z,101884.00
2023-02-18T20:10:22.132Z,101886.69
2023-02-18T20:12:54.156Z,101888.88
2023-02-18T20:15:22.177Z,101886.19
2023-02-18T20:17:50.060Z,101883.19
2023-02-18T20:20:19.155Z,101885.09
2023-02-18T20:22:46.539Z,101880.47
2023-02-18T20:25:13.973Z,101876.44
2023-02-18T20:27:58.203Z,101884.25
2023-02-18T20:30:27.656Z,101879.63
2023-02-18T20:32:55.078Z,101890.72
2023-02-18T20:35:22.601Z,101881.78
2023-02-18T20:37:50.033Z,101878.00
2023-02-18T20:40:17.707Z,101877.72
2023-02-18T20:42:45.315Z,101880.41
2023-02-18T20:45:12.585Z,101886.91
2023-02-18T20:47:39.981Z,101890.44
2023-02-18T20:50:07.639Z,101883.09
2023-02-18T20:52:35.058Z,101892.84
2023-02-18T20:55:02.433Z,101891.22
2023-02-18T20:57:29.872Z,101890.38
2023-02-18T20:59:58.398Z,101893.63
2023-02-18T21:02:25.878Z,101893.91
2023-02-18T21:04:55.779Z,101895.00
2023-02-18T21:07:23.210Z,101889.59
2023-02-18T21:09:50.456Z,101889.88
2023-02-18T21:12:17.810Z,101892.84
2023-02-18T21:14:45.294Z,101890.69
2023-02-18T21:17:12.704Z,101887.19
2023-02-18T21:19:40.694Z,101886.63
2023-02-18T21:22:08.042Z,101887.69
2023-02-18T21:24:35.414Z,101892.56
2023-02-18T21:27:02.805Z,101893.91
2023-02-18T21:29:30.275Z,101886.88
2023-02-18T21:31:57.751Z,101896.31
2023-02-18T21:34:26.044Z,101890.88
2023-02-18T21:36:53.419Z,101893.88
2023-02-18T21:39:23.608Z,101888.75
2023-02-18T21:41:50.957Z,101896.00
2023-02-18T21:44:18.293Z,101899.25
2023-02-18T21:46:45.749Z,101900.06
2023-02-18T21:49:13.328Z,101900.09
2023-02-18T21:51:57.918Z,101899.31
2023-02-18T21:54:37.004Z,101898.78
2023-02-18T21:57:05.308Z,101894.44
2023-02-18T21:59:36.189Z,101898.50
2023-02-18T22:02:05.427Z,101896.31
2023-02-18T22:04:34.595Z,101892.50
2023-02-18T22:07:03.465Z,101896.84
2023-02-18T22:09:31.114Z,101893.31
2023-02-18T22:11:58.597Z,101890.66
2023-02-18T22:14:25.919Z,101890.41
2023-02-18T22:16:53.449Z,101900.38
2023-02-18T22:19:20.861Z,101901.19
2023-02-18T22:21:50.954Z,101902.31
2023-02-18T22:24:19.365Z,101900.94
2023-02-18T22:26:48.393Z,101905.00
2023-02-18T22:29:19.404Z,101904.47
2023-02-18T22:31:47.396Z,101895.84
2023-02-18T22:34:15.610Z,101903.97
2023-02-18T22:36:43.072Z,101904.25
2023-02-18T22:39:11.379Z,101901.28
2023-02-18T22:41:39.273Z,101906.41
2023-02-18T22:44:09.050Z,101908.63
2023-02-18T22:46:37.376Z,101907.25
2023-02-18T22:49:06.625Z,101907.53
2023-02-18T22:51:37.851Z,101902.69
2023-02-18T22:54:10.657Z,101905.91
2023-02-18T22:56:38.079Z,101908.34
2023-02-18T22:59:05.989Z,101908.09
2023-02-18T23:01:36.619Z,101904.81
2023-02-18T23:04:12.337Z,101902.41
2023-02-18T23:06:43.336Z,101905.63
2023-02-18T23:09:17.226Z,101901.03
2023-02-18T23:11:44.796Z,101891.56
2023-02-18T23:14:18.303Z,101894.56
2023-02-18T23:17:18.595Z,101888.06
2023-02-18T23:19:54.772Z,101890.78
2023-02-18T23:22:30.538Z,101891.31
2023-02-18T23:24:59.218Z,101898.34
2023-02-18T23:27:27.225Z,101897.81
2023-02-18T23:29:56.410Z,101895.09
2023-02-18T23:32:24.946Z,101894.00
2023-02-18T23:34:52.370Z,101882.09
2023-02-18T23:37:40.621Z,101888.88
2023-02-18T23:40:09.005Z,101876.69
2023-02-18T23:42:36.379Z,101872.34
2023-02-18T23:45:03.851Z,101870.72
2023-02-18T23:47:32.033Z,101878.59
2023-02-18T23:49:59.300Z,101876.44
2023-02-18T23:52:26.691Z,101872.91
2023-02-18T23:54:54.438Z,101873.44
2023-02-18T23:57:21.809Z,101869.13
2023-02-18T23:59:49.117Z,101865.03
